Time;durP1;ratioP1;P1;durP2;ratioP2;P2;SDS_P1;SDS_P2;PMS_P1;PMS_P2;Temp;Humidity;BMP_temperature;BMP_pressure;BME280_temperature;BME280_humidity;BME280_pressure;Samples;Min_cycle;Max_cycle;Signal;HPM_P1;HPM_P2
2021/12/01 00:01:15;;;;;;;10.70;8.53;;;;;;;1.00;67.36;98270.98;1676990;85;20997;-71
2021/12/01 00:03:42;;;;;;;;;;;;;;;1.03;67.23;98275.88;1680408;84;21126;-70
2021/12/01 00:06:10;;;;;;;13.80;8.10;;;;;;;1.02;67.27;98279.01;1675137;84;20161;-71
2021/12/01 00:08:37;;;;;;;10.03;7.40;;;;;;;1.00;67.25;98265.73;1683816;84;21520;-72
2021/12/01 00:11:04;;;;;;;12.70;8.70;;;;;;;0.99;67.17;98271.48;1681146;84;21167;-71
2021/12/01 00:13:33;;;;;;;11.00;8.70;;;;;;;1.00;67.11;98269.66;1677914;84;21053;-73
2021/12/01 00:16:02;;;;;;;8.23;7.43;;;;;;;1.00;66.99;98257.86;1685249;84;21049;-71
2021/12/01 00:18:30;;;;;;;12.10;9.77;;;;;;;1.01;66.91;98258.19;1684029;84;21093;-72
2021/12/01 00:20:57;;;;;;;9.43;8.03;;;;;;;1.01;66.86;98255.56;1671459;84;21025;-71
2021/12/01 00:23:24;;;;;;;11.47;7.10;;;;;;;1.03;66.91;98250.95;1675652;84;21113;-73
2021/12/01 00:25:51;;;;;;;10.03;8.33;;;;;;;1.04;66.86;98246.04;1682015;85;20978;-70
2021/12/01 00:28:18;;;;;;;11.48;8.83;;;;;;;1.09;66.78;98250.23;1686260;84;21489;-73
2021/12/01 00:30:46;;;;;;;11.77;8.93;;;;;;;1.10;66.60;98262.38;1686150;84;21632;-71
2021/12/01 00:33:17;;;;;;;9.70;8.00;;;;;;;1.06;66.48;98261.91;1677411;84;21114;-72
2021/12/01 00:35:45;;;;;;;9.33;7.47;;;;;;;1.06;66.43;98259.80;1676886;84;21053;-73
2021/12/01 00:38:12;;;;;;;11.93;8.07;;;;;;;1.03;66.78;98258.83;1681878;84;21040;-73
2021/12/01 00:40:39;;;;;;;10.15;8.18;;;;;;;1.04;67.27;98253.91;1679581;84;21516;-73
2021/12/01 00:43:05;;;;;;;9.87;7.63;;;;;;;1.00;68.54;98249.98;1675203;84;21082;-71
2021/12/01 00:45:33;;;;;;;11.80;9.05;;;;;;;0.98;69.47;98251.50;1680692;84;20985;-71
2021/12/01 00:48:08;;;;;;;12.53;9.67;;;;;;;0.93;70.35;98253.84;1644686;85;21063;-73
2021/12/01 00:50:35;;;;;;;11.40;9.65;;;;;;;0.86;71.42;98253.72;1624597;87;21054;-70
2021/12/01 00:53:05;;;;;;;12.63;8.33;;;;;;;0.77;72.57;98250.84;1628735;87;21618;-71
2021/12/01 00:55:33;;;;;;;11.20;7.37;;;;;;;0.74;73.00;98248.08;1630680;84;21059;-71
2021/12/01 00:58:02;;;;;;;11.47;8.23;;;;;;;0.66;73.54;98247.32;1661494;84;21046;-72
2021/12/01 01:00:31;;;;;;;11.83;9.13;;;;;;;0.65;74.06;98247.02;1681583;84;21023;-70
2021/12/01 01:02:59;;;;;;;9.43;7.70;;;;;;;0.56;74.92;98244.44;1676289;84;21006;-71
2021/12/01 01:05:26;;;;;;;10.13;8.27;;;;;;;0.53;75.42;98237.45;1669571;84;21518;-70
2021/12/01 01:07:54;;;;;;;11.43;8.83;;;;;;;0.48;76.59;98237.15;1675166;84;20992;-72
2021/12/01 01:10:31;;;;;;;10.73;9.30;;;;;;;0.43;77.21;98238.97;1668984;84;21067;-74
2021/12/01 01:18:41;;;;;;;15.73;9.80;;;;;;;0.34;78.23;98229.53;1675403;84;21075;-70
2021/12/01 01:21:08;;;;;;;12.73;9.00;;;;;;;0.32;79.02;98230.20;1676836;84;21019;-70
2021/12/01 01:23:37;;;;;;;11.73;10.00;;;;;;;0.31;79.65;98229.39;1673983;84;21570;-70
2021/12/01 01:26:07;;;;;;;12.20;9.97;;;;;;;0.26;80.03;98219.11;1664594;84;21084;-71
2021/12/01 01:28:34;;;;;;;17.13;11.63;;;;;;;0.22;79.82;98209.47;1672258;84;21609;-71
2021/12/01 01:31:03;;;;;;;13.10;10.30;;;;;;;0.22;80.40;98212.59;1652628;84;21081;-74
2021/12/01 01:33:30;;;;;;;11.47;8.50;;;;;;;0.18;80.54;98211.63;1662978;84;21067;-71
2021/12/01 01:35:57;;;;;;;11.48;9.30;;;;;;;0.22;80.69;98203.42;1672340;84;20999;-71
2021/12/01 01:38:24;;;;;;;11.17;9.77;;;;;;;0.29;80.24;98203.05;1668550;84;21075;-72
2021/12/01 01:40:50;;;;;;;12.03;9.15;;;;;;;0.29;80.22;98195.19;1672731;84;21015;-73
2021/12/01 01:43:17;;;;;;;12.77;9.27;;;;;;;0.23;80.08;98188.84;1670649;84;21043;-73
2021/12/01 01:45:44;;;;;;;;;;;;;;;0.21;80.23;98188.68;1648086;83;21065;-71
2021/12/01 01:48:14;;;;;;;11.87;8.57;;;;;;;0.17;80.35;98183.81;1598674;87;20133;-71
2021/12/01 01:50:43;;;;;;;10.83;8.40;;;;;;;0.15;80.75;98173.16;1623804;86;22190;-73
2021/12/01 01:53:19;;;;;;;11.73;10.10;;;;;;;0.22;80.72;98171.98;1625030;87;21056;-71
2021/12/01 01:55:49;;;;;;;14.47;10.67;;;;;;;0.23;80.62;98170.98;1626190;87;21100;-79
2021/12/01 01:58:21;;;;;;;12.53;9.60;;;;;;;0.14;81.27;98166.31;1628107;86;21057;-72
2021/12/01 02:00:52;;;;;;;13.23;9.60;;;;;;;0.15;81.31;98164.83;1618551;87;21077;-71
2021/12/01 02:03:22;;;;;;;11.80;8.77;;;;;;;0.11;81.47;98160.91;1631189;86;21045;-69
2021/12/01 02:05:49;;;;;;;11.40;8.27;;;;;;;0.16;81.64;98162.52;1625298;86;21087;-70
2021/12/01 02:08:20;;;;;;;11.17;9.20;;;;;;;0.22;81.54;98152.33;1622978;86;21057;-70
2021/12/01 02:10:50;;;;;;;11.77;8.83;;;;;;;0.22;81.81;98154.45;1619166;87;21042;-70
2021/12/01 02:13:20;;;;;;;10.13;8.10;;;;;;;0.15;81.92;98149.11;1652122;85;21479;-74
2021/12/01 02:15:50;;;;;;;13.80;9.83;;;;;;;0.09;82.01;98150.30;1617849;87;21030;-71
2021/12/01 02:18:20;;;;;;;12.03;9.90;;;;;;;0.08;81.89;98150.80;1660948;84;21071;-72
2021/12/01 02:21:15;;;;;;;10.57;8.70;;;;;;;0.01;82.50;98156.41;1653743;85;21081;-68
2021/12/01 02:23:47;;;;;;;11.80;8.17;;;;;;;-0.03;82.79;98148.58;1656290;85;21000;-69
2021/12/01 02:26:17;;;;;;;10.33;8.57;;;;;;;-0.13;83.53;98150.13;1645843;85;21116;-70
2021/12/01 02:28:48;;;;;;;11.10;8.03;;;;;;;-0.09;83.55;98146.66;1661483;85;20985;-69
2021/12/01 02:31:15;;;;;;;11.43;8.97;;;;;;;-0.13;83.81;98144.89;1659600;85;21016;-69
2021/12/01 02:33:43;;;;;;;9.70;8.17;;;;;;;-0.17;83.84;98145.39;1659294;84;21106;-70
2021/12/01 02:36:14;;;;;;;12.33;8.57;;;;;;;-0.16;83.68;98139.18;1665151;83;21012;-69
2021/12/01 02:38:45;;;;;;;12.63;8.47;;;;;;;-0.13;83.75;98136.19;1692766;83;21119;-69
2021/12/01 02:41:13;;;;;;;11.33;8.43;;;;;;;-0.15;83.73;98138.17;1694392;83;21075;-70
2021/12/01 02:43:40;;;;;;;10.53;8.23;;;;;;;-0.22;83.95;98137.56;1691807;83;21005;-68
2021/12/01 02:46:08;;;;;;;12.40;8.03;;;;;;;-0.18;83.86;98143.27;1689994;82;21461;-69
2021/12/01 02:48:41;;;;;;;11.80;8.07;;;;;;;-0.14;83.78;98134.58;1694992;83;21126;-70
2021/12/01 02:51:05;;;;;;;10.37;8.70;;;;;;;-0.13;83.78;98134.88;1690780;83;21062;-70
2021/12/01 02:53:31;;;;;;;12.65;8.73;;;;;;;-0.16;83.78;98136.56;1699358;83;20986;-68
2021/12/01 02:56:03;;;;;;;8.78;7.87;;;;;;;-0.13;83.62;98134.88;1694147;83;21059;-71
2021/12/01 02:58:33;;;;;;;15.60;10.13;;;;;;;-0.07;83.47;98143.38;1698478;84;21030;-71
2021/12/01 03:01:05;;;;;;;10.43;8.40;;;;;;;-0.05;83.28;98132.23;1697523;83;20983;-71
2021/12/01 03:03:34;;;;;;;9.37;8.37;;;;;;;-0.05;83.55;98130.92;1684151;83;21162;-70
2021/12/01 03:06:00;;;;;;;9.88;8.88;;;;;;;0.04;83.43;98132.49;1699326;83;21030;-70
2021/12/01 03:08:28;;;;;;;12.90;8.50;;;;;;;0.10;83.05;98121.81;1675272;84;20977;-71
2021/12/01 03:10:56;;;;;;;10.90;9.20;;;;;;;0.11;82.63;98129.47;1698240;83;21105;-71
2021/12/01 03:13:25;;;;;;;10.53;8.80;;;;;;;0.15;82.54;98126.01;1705894;82;21021;-70
2021/12/01 03:15:53;;;;;;;11.07;9.03;;;;;;;0.18;82.56;98130.91;1709908;82;21674;-71
2021/12/01 03:18:22;;;;;;;13.53;10.10;;;;;;;0.13;82.43;98124.06;1695295;83;21072;-69
2021/12/01 03:20:50;;;;;;;11.87;8.27;;;;;;;0.13;82.50;98122.28;1720546;82;21044;-70
2021/12/01 03:23:18;;;;;;;10.90;9.23;;;;;;;0.20;82.33;98117.13;1719259;82;20957;-69
2021/12/01 03:25:45;;;;;;;10.80;8.37;;;;;;;0.24;81.94;98124.15;1708149;83;21037;-72
2021/12/01 03:28:13;;;;;;;10.13;8.10;;;;;;;0.17;82.00;98114.38;1715494;82;22212;-70
2021/12/01 03:30:40;;;;;;;9.73;8.60;;;;;;;0.15;82.01;98119.45;1670563;84;21670;-69
2021/12/01 03:33:11;;;;;;;9.30;7.50;;;;;;;0.17;81.99;98124.02;1693507;82;21520;-70
2021/12/01 03:35:40;;;;;;;9.17;8.00;;;;;;;0.15;82.22;98116.84;1689704;84;21153;-68
2021/12/01 03:38:08;;;;;;;9.87;8.07;;;;;;;0.17;82.14;98119.63;1706480;82;20994;-69
2021/12/01 03:40:35;;;;;;;11.87;9.13;;;;;;;0.21;82.10;98112.23;1707839;83;21045;-71
2021/12/01 03:43:02;;;;;;;12.07;9.73;;;;;;;0.24;81.88;98113.66;1704593;82;21006;-68
2021/12/01 03:45:29;;;;;;;11.33;8.97;;;;;;;0.23;81.84;98118.10;1702078;82;21021;-69
2021/12/01 03:47:56;;;;;;;;;;;;;;;0.21;82.11;98120.56;1701469;82;21070;-69
2021/12/01 03:50:22;;;;;;;10.53;8.27;;;;;;;0.23;82.14;98120.72;1708973;83;20146;-70
2021/12/01 03:52:49;;;;;;;10.23;9.07;;;;;;;0.18;82.35;98123.05;1695779;82;21115;-70
2021/12/01 03:55:16;;;;;;;10.37;9.27;;;;;;;0.23;82.27;98118.10;1691294;82;21064;-72
2021/12/01 03:57:42;;;;;;;10.45;8.45;;;;;;;0.27;82.25;98118.06;1700180;82;20989;-70
2021/12/01 04:00:14;;;;;;;10.53;9.17;;;;;;;0.26;82.39;98116.42;1695446;82;21019;-70
2021/12/01 04:02:41;;;;;;;9.63;8.63;;;;;;;0.22;82.53;98118.27;1703737;82;20946;-69
2021/12/01 04:05:10;;;;;;;13.40;8.97;;;;;;;-0.13;82.34;98054.55;1704809;82;21065;-70
2021/12/01 04:07:40;;;;;;;11.27;9.00;;;;;;;0.33;82.36;98115.23;1705384;82;21037;-72
2021/12/01 04:10:12;;;;;;;13.07;10.23;;;;;;;0.35;82.39;98109.31;1677176;83;21118;-69
2021/12/01 04:12:41;;;;;;;10.47;8.40;;;;;;;0.34;82.60;98106.36;1700716;84;20990;-69
2021/12/01 04:15:10;;;;;;;10.17;8.87;;;;;;;0.33;82.94;98109.48;1705572;82;21049;-71
2021/12/01 04:17:40;;;;;;;8.60;7.70;;;;;;;0.38;82.83;98105.84;1708952;82;21056;-71
2021/12/01 04:20:09;;;;;;;9.83;8.47;;;;;;;0.43;82.93;98110.54;1708245;84;21064;-70
2021/12/01 04:22:37;;;;;;;9.63;8.67;;;;;;;0.44;82.81;98117.42;1709617;84;21128;-70
2021/12/01 04:25:05;;;;;;;10.73;8.67;;;;;;;0.38;83.15;98108.97;1706713;82;21830;-70
2021/12/01 04:27:32;;;;;;;10.80;9.40;;;;;;;0.37;83.54;98107.33;1709396;82;21029;-71
2021/12/01 04:29:58;;;;;;;;;;;;;;;0.45;83.34;98099.38;1710422;82;21512;-71
2021/12/01 04:32:25;;;;;;;10.47;9.00;;;;;;;0.50;83.41;98106.72;1707285;82;20133;-70
2021/12/01 04:34:52;;;;;;;9.57;8.13;;;;;;;0.45;83.96;98096.76;1708025;82;21620;-70
2021/12/01 04:37:18;;;;;;;14.07;10.10;;;;;;;0.36;84.51;98102.59;1700844;82;20964;-74
2021/12/01 04:39:45;;;;;;;12.35;9.75;;;;;;;0.31;84.87;98093.63;1704495;82;21346;-76
2021/12/01 04:42:12;;;;;;;12.95;8.70;;;;;;;0.28;85.42;98093.98;1697582;82;21078;-70
2021/12/01 04:44:40;;;;;;;10.87;9.17;;;;;;;0.34;85.51;98099.81;1702793;83;20962;-72
2021/12/01 04:47:13;;;;;;;11.53;10.33;;;;;;;0.35;85.67;98099.64;1702002;82;20974;-69
2021/12/01 04:49:39;;;;;;;13.13;11.17;;;;;;;0.31;85.86;98102.80;1704917;82;21537;-71
2021/12/01 04:52:09;;;;;;;14.67;11.40;;;;;;;0.24;86.37;98103.19;1707410;82;21474;-70
2021/12/01 04:54:38;;;;;;;11.80;10.33;;;;;;;0.23;86.57;98111.55;1707975;82;21068;-70
2021/12/01 04:57:07;;;;;;;14.13;10.10;;;;;;;0.32;86.25;98107.88;1708928;82;21060;-68
2021/12/01 04:59:34;;;;;;;12.90;10.00;;;;;;;0.42;86.32;98106.81;1698873;82;21517;-68
2021/12/01 05:02:01;;;;;;;11.30;9.83;;;;;;;0.44;86.09;98109.56;1704100;82;21028;-69
2021/12/01 05:04:29;;;;;;;12.53;10.67;;;;;;;0.39;86.32;98107.96;1694797;82;21081;-70
2021/12/01 05:06:57;;;;;;;10.57;9.23;;;;;;;0.36;86.36;98107.03;1701440;82;20962;-68
2021/12/01 05:09:24;;;;;;;11.83;9.37;;;;;;;0.39;86.44;98109.27;1704194;82;21048;-69
2021/12/01 05:11:51;;;;;;;11.53;9.93;;;;;;;0.47;86.20;98113.14;1701089;82;21398;-68
2021/12/01 05:14:20;;;;;;;10.17;9.13;;;;;;;0.50;85.91;98112.77;1708082;82;21045;-72
2021/12/01 05:16:46;;;;;;;9.77;8.87;;;;;;;0.47;86.08;98111.84;1705376;84;20994;-73
2021/12/01 05:19:14;;;;;;;13.30;9.63;;;;;;;0.45;86.38;98113.80;1705972;82;21093;-71
2021/12/01 05:21:42;;;;;;;13.17;10.40;;;;;;;0.43;86.53;98113.16;1706384;82;21095;-72
2021/12/01 05:24:08;;;;;;;9.67;8.13;;;;;;;0.53;86.20;98119.48;1708505;82;21036;-70
2021/12/01 05:26:36;;;;;;;12.63;10.57;;;;;;;0.63;85.98;98124.47;1705522;82;21048;-70
2021/12/01 05:29:04;;;;;;;9.87;8.87;;;;;;;0.67;85.89;98129.66;1708344;82;21026;-71
2021/12/01 05:31:33;;;;;;;15.13;10.17;;;;;;;0.64;86.01;98124.77;1709237;82;21509;-71
2021/12/01 05:34:00;;;;;;;14.53;10.50;;;;;;;0.64;86.07;98127.39;1693428;82;21482;-70
2021/12/01 05:36:26;;;;;;;;;;;;;;;0.64;86.09;98131.32;1696045;83;21535;-71
2021/12/01 05:38:52;;;;;;;10.17;9.17;;;;;;;0.70;85.85;98132.75;1707117;82;20145;-70
2021/12/01 05:41:19;;;;;;;9.15;8.33;;;;;;;0.80;85.77;98138.23;1709958;82;20978;-69
2021/12/01 05:43:47;;;;;;;;;;;;;;;0.87;85.65;98148.33;1712154;82;21018;-70
2021/12/01 05:46:13;;;;;;;;;;;;;;;0.85;85.66;98151.59;1709687;82;20145;-70
2021/12/01 05:48:40;;;;;;;10.60;9.43;;;;;;;0.76;85.77;98157.44;1706994;82;20456;-69
2021/12/01 05:51:07;;;;;;;14.60;8.13;;;;;;;0.69;85.91;98156.52;1706467;82;21029;-68
2021/12/01 05:53:34;;;;;;;;;;;;;;;0.78;85.79;98156.25;1708530;82;21826;-68
2021/12/01 05:56:01;;;;;;;12.17;8.93;;;;;;;0.91;85.38;98158.27;1684985;84;20379;-70
2021/12/01 05:58:28;;;;;;;10.43;8.30;;;;;;;0.99;85.40;98159.18;1703672;82;21106;-72
2021/12/01 06:00:54;;;;;;;11.48;10.23;;;;;;;1.05;85.46;98159.25;1689476;82;21506;-69
2021/12/01 06:03:21;;;;;;;11.70;9.00;;;;;;;1.09;85.35;98168.89;1706236;82;21026;-73
2021/12/01 06:05:48;;;;;;;11.10;8.97;;;;;;;1.12;85.30;98175.10;1703553;82;21595;-73
2021/12/01 06:08:15;;;;;;;9.97;8.77;;;;;;;1.16;85.29;98180.30;1699589;83;21549;-69
2021/12/01 06:10:43;;;;;;;11.30;8.53;;;;;;;1.22;85.08;98186.64;1695088;82;21153;-69
2021/12/01 06:13:10;;;;;;;11.13;8.90;;;;;;;1.33;84.22;98186.19;1704003;83;21029;-70
2021/12/01 06:15:37;;;;;;;8.47;7.53;;;;;;;1.40;83.66;98189.72;1692538;83;21628;-72
2021/12/01 06:18:04;;;;;;;;;;;;;;;1.44;83.48;98184.41;1701126;82;21022;-70
2021/12/01 06:20:32;;;;;;;9.40;8.43;;;;;;;1.36;83.32;98192.39;1708691;82;20180;-71
2021/12/01 06:22:58;;;;;;;9.67;8.77;;;;;;;1.24;83.66;98197.77;1706160;82;21049;-70
2021/12/01 06:25:25;;;;;;;10.78;9.60;;;;;;;1.17;83.85;98193.75;1705696;82;21394;-75
2021/12/01 06:27:54;;;;;;;9.67;8.67;;;;;;;1.30;83.73;98198.34;1708524;82;21065;-71
2021/12/01 06:30:22;;;;;;;8.47;7.60;;;;;;;1.36;83.50;98198.45;1709842;82;21018;-72
2021/12/01 06:32:49;;;;;;;10.53;8.87;;;;;;;1.41;83.58;98200.52;1675330;84;21046;-74
2021/12/01 06:35:17;;;;;;;11.50;9.80;;;;;;;1.39;83.57;98199.08;1701223;82;21054;-72
2021/12/01 06:37:46;;;;;;;11.70;9.57;;;;;;;1.38;83.76;98205.34;1705114;82;21084;-70
2021/12/01 06:40:14;;;;;;;12.67;8.90;;;;;;;1.36;83.67;98208.95;1708528;82;21035;-72
2021/12/01 06:42:41;;;;;;;9.57;8.57;;;;;;;1.41;83.33;98208.39;1705313;84;21060;-71
2021/12/01 06:45:10;;;;;;;10.87;9.00;;;;;;;1.47;83.16;98208.16;1701323;82;21034;-71
2021/12/01 06:47:38;;;;;;;11.20;10.13;;;;;;;1.50;83.15;98217.00;1705897;84;21597;-73
2021/12/01 06:50:07;;;;;;;12.27;9.83;;;;;;;1.44;83.18;98222.48;1693463;83;21500;-71
2021/12/01 06:52:34;;;;;;;12.13;10.93;;;;;;;1.43;83.58;98225.28;1702653;82;21030;-72
2021/12/01 06:55:02;;;;;;;11.05;9.78;;;;;;;1.43;83.68;98220.87;1691864;82;21086;-69
2021/12/01 06:57:32;;;;;;;11.97;10.67;;;;;;;1.51;83.72;98224.70;1701866;82;21038;-71
2021/12/01 06:59:59;;;;;;;10.70;9.60;;;;;;;1.68;83.27;98229.27;1704447;82;21094;-71
2021/12/01 07:02:26;;;;;;;11.50;10.13;;;;;;;1.81;82.69;98233.03;1708821;82;21021;-72
2021/12/01 07:04:52;;;;;;;;;;;;;;;1.86;82.56;98239.87;1704483;82;21108;-71
2021/12/01 07:07:19;;;;;;;13.00;11.70;;;;;;;1.86;82.39;98243.81;1698285;82;20177;-69
2021/12/01 07:09:50;;;;;;;13.23;11.47;;;;;;;1.80;82.51;98252.44;1702362;82;21053;-73
2021/12/01 07:12:15;;;;;;;12.57;10.97;;;;;;;1.82;82.62;98257.00;1689921;82;22188;-71
2021/12/01 07:14:41;;;;;;;12.07;10.23;;;;;;;1.86;82.56;98258.27;1691866;82;21555;-75
2021/12/01 07:17:08;;;;;;;11.23;9.27;;;;;;;1.87;81.88;98258.09;1705386;82;21028;-63
2021/12/01 07:19:35;;;;;;;10.97;9.30;;;;;;;1.93;81.59;98260.48;1709512;83;21093;-62
2021/12/01 07:22:02;;;;;;;14.43;10.65;;;;;;;1.97;81.46;98260.93;1708138;82;21073;-63
2021/12/01 07:24:29;;;;;;;14.20;10.27;;;;;;;1.98;81.50;98262.06;1695734;82;20999;-65
2021/12/01 07:26:56;;;;;;;13.07;11.40;;;;;;;1.98;81.88;98263.85;1697187;82;20958;-64
2021/12/01 07:29:25;;;;;;;12.30;10.67;;;;;;;2.03;82.05;98272.01;1705343;82;21010;-65
2021/12/01 07:31:53;;;;;;;12.60;11.27;;;;;;;2.07;81.74;98271.47;1706092;83;21021;-65
2021/12/01 07:34:20;;;;;;;9.73;8.73;;;;;;;2.09;81.66;98265.53;1702489;82;21029;-64
2021/12/01 07:36:48;;;;;;;11.00;9.77;;;;;;;2.14;81.18;98257.08;1707335;82;21157;-65
2021/12/01 07:39:14;;;;;;;10.07;9.03;;;;;;;2.23;80.75;98267.80;1708462;83;21030;-63
2021/12/01 07:41:42;;;;;;;13.73;10.53;;;;;;;2.28;80.35;98270.69;1695366;82;21059;-64
2021/12/01 07:44:09;;;;;;;13.72;10.40;;;;;;;2.24;80.45;98266.81;1695212;82;21066;-64
2021/12/01 07:48:52;;;;;;;11.70;10.53;;;;;;;2.27;80.89;98269.56;1801161;78;22354;-65
2021/12/01 07:51:18;;;;;;;;;;;;;;;2.22;80.81;98277.17;1780605;80;21036;-64
2021/12/01 07:53:45;;;;;;;11.80;10.70;;;;;;;2.25;80.93;98278.94;1784348;80;20499;-64
2021/12/01 07:56:12;;;;;;;19.00;12.20;;;;;;;2.23;80.88;98278.82;1735268;80;20998;-64
2021/12/01 07:58:39;;;;;;;12.77;11.40;;;;;;;2.27;80.68;98282.70;1732005;81;21526;-64
2021/12/01 08:01:06;;;;;;;12.03;10.82;;;;;;;2.40;80.30;98291.24;1721755;81;21551;-65
2021/12/01 08:03:33;;;;;;;12.40;10.90;;;;;;;2.46;79.74;98294.44;1709070;82;21028;-66
2021/12/01 08:05:59;;;;;;;12.37;10.70;;;;;;;2.48;79.84;98297.18;1725439;82;21079;-64
2021/12/01 08:08:26;;;;;;;14.05;12.47;;;;;;;2.43;80.11;98302.69;1716252;82;21026;-65
2021/12/01 08:10:52;;;;;;;12.60;11.00;;;;;;;2.37;80.29;98308.19;1725238;82;21019;-66
2021/12/01 08:13:20;;;;;;;;;;;;;;;2.37;80.16;98307.38;1725882;81;21065;-64
2021/12/01 08:15:48;;;;;;;12.93;11.63;;;;;;;2.34;79.71;98309.37;1727049;81;20186;-65
2021/12/01 08:18:16;;;;;;;13.30;11.90;;;;;;;2.41;79.79;98318.67;1702500;84;21508;-64
2021/12/01 08:20:44;;;;;;;14.13;11.93;;;;;;;2.51;79.41;98324.94;1679210;84;21496;-64
2021/12/01 08:23:12;;;;;;;13.23;11.83;;;;;;;2.53;79.23;98325.56;1680821;83;21143;-64
2021/12/01 08:25:38;;;;;;;19.57;13.05;;;;;;;2.47;79.33;98329.76;1678837;84;21065;-64
2021/12/01 08:28:08;;;;;;;16.30;11.90;;;;;;;2.43;79.37;98328.50;1686572;84;21090;-65
2021/12/01 08:30:36;;;;;;;15.33;13.07;;;;;;;2.40;79.50;98328.05;1678898;84;21026;-63
2021/12/01 08:33:04;;;;;;;13.47;12.07;;;;;;;2.36;79.67;98337.31;1673924;84;21000;-66
2021/12/01 08:35:30;;;;;;;10.77;9.67;;;;;;;2.37;79.79;98342.36;1642944;85;20994;-65
2021/12/01 08:37:57;;;;;;;14.90;11.15;;;;;;;2.46;79.68;98343.89;1642423;86;21017;-65
2021/12/01 08:40:24;;;;;;;13.07;11.67;;;;;;;2.51;79.50;98346.79;1652991;85;21060;-66
2021/12/01 08:42:51;;;;;;;14.43;11.77;;;;;;;2.54;79.24;98356.11;1658020;85;21588;-66
2021/12/01 08:45:17;;;;;;;12.07;10.88;;;;;;;2.49;79.57;98355.88;1657190;85;21057;-63
2021/12/01 08:47:48;;;;;;;13.23;11.80;;;;;;;2.46;79.66;98363.61;1653540;85;21542;-64
2021/12/01 08:50:15;;;;;;;13.63;12.27;;;;;;;2.45;79.78;98363.31;1650828;85;21045;-65
2021/12/01 08:52:44;;;;;;;13.13;10.83;;;;;;;2.46;79.89;98360.98;1650369;85;21735;-65
2021/12/01 08:55:10;;;;;;;11.90;10.70;;;;;;;2.50;79.64;98370.13;1648618;85;22283;-66
2021/12/01 08:57:38;;;;;;;11.10;9.93;;;;;;;2.61;79.21;98362.77;1637681;85;21049;-65
2021/12/01 09:00:07;;;;;;;10.90;9.83;;;;;;;2.67;78.55;98368.09;1647022;85;21061;-66
2021/12/01 09:02:36;;;;;;;11.30;10.10;;;;;;;2.64;78.46;98363.22;1638905;85;21081;-65
2021/12/01 09:05:02;;;;;;;11.22;9.83;;;;;;;2.62;78.60;98361.28;1645987;85;21577;-64
2021/12/01 09:07:29;;;;;;;11.73;10.63;;;;;;;2.62;78.34;98357.34;1646554;85;21129;-65
2021/12/01 09:09:55;;;;;;;10.53;9.53;;;;;;;2.60;78.10;98366.39;1639615;85;21116;-65
2021/12/01 09:12:22;;;;;;;12.23;10.27;;;;;;;2.62;78.15;98374.91;1651718;85;21062;-66
2021/12/01 09:14:51;;;;;;;10.13;9.23;;;;;;;2.68;77.33;98378.95;1655775;85;21172;-65
2021/12/01 09:17:18;;;;;;;10.53;8.87;;;;;;;2.70;77.30;98385.34;1656494;85;21148;-64
2021/12/01 09:19:45;;;;;;;9.53;8.58;;;;;;;2.72;77.41;98388.09;1655747;84;21317;-65
2021/12/01 09:22:12;;;;;;;11.10;10.00;;;;;;;2.70;77.75;98398.50;1701277;83;21011;-64
2021/12/01 09:24:40;;;;;;;10.07;9.07;;;;;;;2.70;77.67;98404.56;1672977;84;21556;-65
2021/12/01 09:27:06;;;;;;;11.40;10.30;;;;;;;2.68;77.62;98408.39;1680655;84;21534;-64
2021/12/01 09:29:33;;;;;;;14.30;11.00;;;;;;;2.67;77.50;98410.19;1674049;84;21077;-64
2021/12/01 09:32:00;;;;;;;10.70;9.70;;;;;;;2.72;77.15;98407.02;1677591;84;21039;-65
2021/12/01 09:34:26;;;;;;;;;;;;;;;2.77;77.02;98408.59;1675049;84;20999;-64
2021/12/01 09:36:54;;;;;;;9.53;8.53;;;;;;;2.81;76.98;98405.09;1668879;84;20167;-64
2021/12/01 09:39:20;;;;;;;10.10;9.08;;;;;;;2.72;77.12;98413.08;1669561;84;21011;-65
2021/12/01 09:41:48;;;;;;;10.73;8.67;;;;;;;2.69;76.50;98419.21;1668989;84;21019;-63
2021/12/01 09:44:14;;;;;;;10.37;8.63;;;;;;;2.66;76.66;98422.23;1642866;84;21146;-64
2021/12/01 09:46:41;;;;;;;;;;;;;;;2.65;76.62;98431.11;1686711;84;21062;-65
2021/12/01 09:49:08;;;;;;;8.60;7.80;;;;;;;2.65;76.20;98447.70;1681252;84;20541;-66
2021/12/01 09:51:35;;;;;;;9.77;7.97;;;;;;;2.67;76.22;98450.95;1698774;83;21072;-64
2021/12/01 09:54:03;;;;;;;11.53;7.70;;;;;;;2.73;76.47;98452.04;1679121;84;21059;-65
2021/12/01 09:56:31;;;;;;;11.63;10.23;;;;;;;2.72;76.30;98453.05;1701848;82;20965;-64
2021/12/01 09:58:58;;;;;;;9.50;8.50;;;;;;;2.65;76.31;98463.98;1711840;82;21041;-64
2021/12/01 10:01:27;;;;;;;9.57;8.37;;;;;;;2.59;76.34;98460.27;1721565;81;21620;-65
2021/12/01 10:03:54;;;;;;;9.83;7.73;;;;;;;2.51;76.65;98474.34;1729489;81;21003;-64
2021/12/01 10:06:26;;;;;;;7.90;7.17;;;;;;;2.49;76.41;98480.80;1726510;81;21565;-65
2021/12/01 10:09:07;;;;;;;8.47;7.67;;;;;;;2.55;76.45;98477.94;1737229;81;21042;-65
2021/12/01 10:11:41;;;;;;;8.10;7.37;;;;;;;2.62;76.42;98486.70;1717288;81;21058;-65
2021/12/01 10:14:21;;;;;;;8.90;8.10;;;;;;;2.64;76.25;98486.05;1663447;83;21496;-66
2021/12/01 10:16:54;;;;;;;10.20;8.53;;;;;;;2.57;76.38;98488.58;1668962;83;21046;-65
2021/12/01 10:19:25;;;;;;;10.33;9.33;;;;;;;2.52;76.84;98494.88;1673030;83;21029;-64
2021/12/01 10:21:52;;;;;;;8.80;7.97;;;;;;;2.51;76.92;98499.83;1635007;85;21555;-64
2021/12/01 10:24:32;;;;;;;9.60;8.33;;;;;;;2.55;76.89;98504.23;1632516;85;22163;-65
2021/12/01 10:27:01;;;;;;;9.27;8.27;;;;;;;2.64;76.75;98509.22;1649656;83;21526;-63
2021/12/01 10:29:35;;;;;;;10.27;8.23;;;;;;;2.70;76.63;98506.36;1673814;83;20962;-63
2021/12/01 10:32:10;;;;;;;9.93;8.93;;;;;;;2.70;76.92;98511.62;1672562;83;21085;-64
2021/12/01 10:34:40;;;;;;;9.23;8.33;;;;;;;2.66;77.06;98509.05;1681912;83;21006;-63
2021/12/01 10:37:27;;;;;;;7.77;6.57;;;;;;;2.63;77.02;98515.46;1698660;83;21014;-64
2021/12/01 10:40:18;;;;;;;9.03;8.13;;;;;;;2.63;76.51;98518.60;1682499;83;20986;-63
2021/12/01 10:42:56;;;;;;;7.63;6.90;;;;;;;2.57;76.09;98521.96;1692402;83;21069;-63
2021/12/01 10:45:31;;;;;;;10.20;9.17;;;;;;;2.63;76.42;98526.48;1705503;83;21085;-63
2021/12/01 10:47:59;;;;;;;8.70;7.90;;;;;;;2.62;76.18;98531.42;1680196;83;21737;-63
2021/12/01 10:50:31;;;;;;;8.47;7.70;;;;;;;2.55;76.60;98534.48;1688375;83;21447;-63
2021/12/01 10:53:08;;;;;;;10.20;8.83;;;;;;;2.53;76.92;98538.09;1690786;84;21033;-65
2021/12/01 10:55:43;;;;;;;9.88;8.88;;;;;;;2.54;76.97;98538.91;1685640;82;21067;-63
2021/12/01 10:58:10;;;;;;;9.43;8.47;;;;;;;2.51;77.10;98540.09;1658529;84;21045;-64
2021/12/01 11:00:46;;;;;;;9.03;8.23;;;;;;;2.53;76.82;98547.30;1677154;83;21515;-64
2021/12/01 11:03:17;;;;;;;9.53;8.57;;;;;;;2.60;76.83;98545.25;1674444;83;21039;-64
2021/12/01 11:05:51;;;;;;;10.70;9.60;;;;;;;2.63;76.32;98553.60;1672773;83;21033;-62
2021/12/01 11:08:32;;;;;;;9.03;8.13;;;;;;;2.59;76.24;98554.16;1673210;83;21526;-64
2021/12/01 11:11:12;;;;;;;10.97;8.77;;;;;;;2.50;76.61;98543.70;1674345;83;21563;-64
2021/12/01 11:13:42;;;;;;;13.23;11.27;;;;;;;2.45;76.12;98554.45;1665358;83;21019;-63
2021/12/01 11:16:14;;;;;;;10.83;9.10;;;;;;;2.40;76.34;98559.45;1673430;83;21045;-64
2021/12/01 11:18:49;;;;;;;9.27;8.47;;;;;;;2.42;76.20;98570.09;1675324;83;20988;-64
2021/12/01 11:21:20;;;;;;;8.47;7.67;;;;;;;2.50;75.83;98571.32;1643692;85;20997;-65
2021/12/01 11:23:55;;;;;;;8.73;7.90;;;;;;;2.58;76.06;98565.66;1620237;86;21033;-64
2021/12/01 11:26:26;;;;;;;9.83;8.83;;;;;;;2.61;76.14;98567.95;1662534;85;21059;-64
2021/12/01 11:29:08;;;;;;;11.10;8.23;;;;;;;2.59;76.28;98562.05;1664598;85;21067;-64
2021/12/01 11:31:46;;;;;;;10.57;9.50;;;;;;;2.61;75.99;98564.00;1661531;85;21077;-64
2021/12/01 11:34:18;;;;;;;10.77;9.67;;;;;;;2.59;74.99;98571.26;1661245;83;21072;-64
2021/12/01 11:36:49;;;;;;;7.90;7.10;;;;;;;2.52;75.46;98565.41;1662280;85;21057;-64
2021/12/01 11:39:25;;;;;;;9.97;8.90;;;;;;;2.57;75.50;98562.73;1661300;85;21011;-64
2021/12/01 11:41:54;;;;;;;9.83;8.83;;;;;;;2.68;74.84;98571.50;1663313;85;21081;-64
2021/12/01 11:44:21;;;;;;;9.73;8.47;;;;;;;2.80;74.46;98575.80;1632843;82;21015;-64
2021/12/01 11:46:49;;;;;;;9.23;8.33;;;;;;;2.85;74.08;98572.13;1638743;86;21103;-64
2021/12/01 11:49:17;;;;;;;7.77;7.00;;;;;;;2.84;73.70;98571.30;1639757;86;21144;-64
2021/12/01 11:51:53;;;;;;;10.07;7.83;;;;;;;2.83;73.68;98580.71;1609173;86;21431;-64